sensor_id;sensor_type;location;lat;lon;timestamp;P1;durP1;ratioP1;P2;durP2;ratioP2
10977;SDS011;5542;48.272;10.794;2023-06-10T00:00:39;5.57;;;5.07;;
10977;SDS011;5542;48.272;10.794;2023-06-10T00:03:07;6.03;;;5.47;;
10977;SDS011;5542;48.272;10.794;2023-06-10T00:05:33;5.70;;;5.20;;
10977;SDS011;5542;48.272;10.794;2023-06-10T00:08:01;5.97;;;5.40;;
10977;SDS011;5542;48.272;10.794;2023-06-10T00:10:33;5.10;;;4.70;;
10977;SDS011;5542;48.272;10.794;2023-06-10T00:13:00;5.82;;;5.32;;
10977;SDS011;5542;48.272;10.794;2023-06-10T00:15:27;5.63;;;5.22;;
10977;SDS011;5542;48.272;10.794;2023-06-10T00:17:54;5.50;;;5.00;;
10977;SDS011;5542;48.272;10.794;2023-06-10T00:20:21;6.18;;;5.57;;
10977;SDS011;5542;48.272;10.794;2023-06-10T00:22:48;5.10;;;4.70;;
10977;SDS011;5542;48.272;10.794;2023-06-10T00:25:15;5.65;;;5.15;;
10977;SDS011;5542;48.272;10.794;2023-06-10T00:27:43;5.40;;;5.00;;
10977;SDS011;5542;48.272;10.794;2023-06-10T00:30:10;5.13;;;4.72;;
10977;SDS011;5542;48.272;10.794;2023-06-10T00:32:37;6.13;;;5.30;;
10977;SDS011;5542;48.272;10.794;2023-06-10T00:35:04;5.78;;;5.28;;
10977;SDS011;5542;48.272;10.794;2023-06-10T00:37:31;5.35;;;4.93;;
10977;SDS011;5542;48.272;10.794;2023-06-10T00:40:00;7.10;;;5.47;;
10977;SDS011;5542;48.272;10.794;2023-06-10T00:42:26;6.23;;;5.73;;
10977;SDS011;5542;48.272;10.794;2023-06-10T00:44:55;6.33;;;5.83;;
10977;SDS011;5542;48.272;10.794;2023-06-10T00:47:21;5.90;;;5.40;;
10977;SDS011;5542;48.272;10.794;2023-06-10T00:49:49;5.45;;;5.00;;
10977;SDS011;5542;48.272;10.794;2023-06-10T00:52:16;6.23;;;5.67;;
10977;SDS011;5542;48.272;10.794;2023-06-10T00:54:44;6.80;;;6.20;;
10977;SDS011;5542;48.272;10.794;2023-06-10T00:57:11;6.22;;;5.70;;
10977;SDS011;5542;48.272;10.794;2023-06-10T00:59:39;7.55;;;6.60;;
10977;SDS011;5542;48.272;10.794;2023-06-10T01:02:07;5.70;;;5.25;;
10977;SDS011;5542;48.272;10.794;2023-06-10T01:04:34;6.00;;;5.40;;
10977;SDS011;5542;48.272;10.794;2023-06-10T01:07:04;6.00;;;5.35;;
10977;SDS011;5542;48.272;10.794;2023-06-10T01:09:42;7.73;;;6.23;;
10977;SDS011;5542;48.272;10.794;2023-06-10T01:12:16;6.55;;;5.85;;
10977;SDS011;5542;48.272;10.794;2023-06-10T01:14:46;6.03;;;5.53;;
10977;SDS011;5542;48.272;10.794;2023-06-10T01:17:15;6.13;;;5.50;;
10977;SDS011;5542;48.272;10.794;2023-06-10T01:19:43;5.75;;;5.25;;
10977;SDS011;5542;48.272;10.794;2023-06-10T01:22:11;5.72;;;5.22;;
10977;SDS011;5542;48.272;10.794;2023-06-10T01:24:41;6.22;;;5.72;;
10977;SDS011;5542;48.272;10.794;2023-06-10T01:27:10;5.88;;;5.40;;
10977;SDS011;5542;48.272;10.794;2023-06-10T01:29:42;6.80;;;6.20;;
10977;SDS011;5542;48.272;10.794;2023-06-10T01:32:15;7.10;;;6.50;;
10977;SDS011;5542;48.272;10.794;2023-06-10T01:34:47;5.53;;;5.03;;
10977;SDS011;5542;48.272;10.794;2023-06-10T01:37:18;5.22;;;4.82;;
10977;SDS011;5542;48.272;10.794;2023-06-10T01:39:46;5.60;;;5.10;;
10977;SDS011;5542;48.272;10.794;2023-06-10T01:42:15;5.40;;;5.00;;
10977;SDS011;5542;48.272;10.794;2023-06-10T01:44:42;4.75;;;4.35;;
10977;SDS011;5542;48.272;10.794;2023-06-10T01:47:08;3.78;;;3.47;;
10977;SDS011;5542;48.272;10.794;2023-06-10T01:49:35;3.60;;;3.40;;
10977;SDS011;5542;48.272;10.794;2023-06-10T01:52:02;3.42;;;3.22;;
10977;SDS011;5542;48.272;10.794;2023-06-10T01:54:30;4.07;;;3.78;;
10977;SDS011;5542;48.272;10.794;2023-06-10T01:56:59;4.10;;;3.80;;
10977;SDS011;5542;48.272;10.794;2023-06-10T01:59:26;3.80;;;3.50;;
10977;SDS011;5542;48.272;10.794;2023-06-10T02:01:52;4.47;;;4.07;;
10977;SDS011;5542;48.272;10.794;2023-06-10T02:04:19;4.53;;;4.13;;
10977;SDS011;5542;48.272;10.794;2023-06-10T02:06:45;3.80;;;3.50;;
10977;SDS011;5542;48.272;10.794;2023-06-10T02:09:13;3.50;;;3.30;;
10977;SDS011;5542;48.272;10.794;2023-06-10T02:11:41;3.38;;;3.17;;
10977;SDS011;5542;48.272;10.794;2023-06-10T02:14:08;3.75;;;3.47;;
10977;SDS011;5542;48.272;10.794;2023-06-10T02:16:34;4.70;;;4.30;;
10977;SDS011;5542;48.272;10.794;2023-06-10T02:19:01;5.95;;;5.45;;
10977;SDS011;5542;48.272;10.794;2023-06-10T02:21:31;5.90;;;5.40;;
10977;SDS011;5542;48.272;10.794;2023-06-10T02:23:57;6.50;;;5.90;;
10977;SDS011;5542;48.272;10.794;2023-06-10T02:26:24;6.70;;;6.10;;
10977;SDS011;5542;48.272;10.794;2023-06-10T02:28:52;6.05;;;5.55;;
10977;SDS011;5542;48.272;10.794;2023-06-10T02:31:19;6.23;;;5.70;;
10977;SDS011;5542;48.272;10.794;2023-06-10T02:33:45;5.47;;;5.00;;
10977;SDS011;5542;48.272;10.794;2023-06-10T02:36:12;5.60;;;5.20;;
10977;SDS011;5542;48.272;10.794;2023-06-10T02:38:40;6.13;;;5.60;;
10977;SDS011;5542;48.272;10.794;2023-06-10T02:41:07;6.10;;;5.60;;
10977;SDS011;5542;48.272;10.794;2023-06-10T02:43:33;5.77;;;5.27;;
10977;SDS011;5542;48.272;10.794;2023-06-10T02:46:01;5.07;;;4.68;;
10977;SDS011;5542;48.272;10.794;2023-06-10T02:48:28;5.20;;;4.70;;
10977;SDS011;5542;48.272;10.794;2023-06-10T02:50:54;5.03;;;4.63;;
10977;SDS011;5542;48.272;10.794;2023-06-10T02:53:22;5.70;;;5.20;;
10977;SDS011;5542;48.272;10.794;2023-06-10T02:55:48;6.50;;;5.90;;
10977;SDS011;5542;48.272;10.794;2023-06-10T02:58:15;6.07;;;5.57;;
10977;SDS011;5542;48.272;10.794;2023-06-10T03:00:41;4.90;;;4.50;;
10977;SDS011;5542;48.272;10.794;2023-06-10T03:03:10;4.93;;;4.53;;
10977;SDS011;5542;48.272;10.794;2023-06-10T03:05:37;4.63;;;4.27;;
10977;SDS011;5542;48.272;10.794;2023-06-10T03:08:05;5.20;;;4.80;;
10977;SDS011;5542;48.272;10.794;2023-06-10T03:10:31;5.10;;;4.70;;
10977;SDS011;5542;48.272;10.794;2023-06-10T03:12:58;5.90;;;5.40;;
10977;SDS011;5542;48.272;10.794;2023-06-10T03:15:25;6.53;;;5.93;;
10977;SDS011;5542;48.272;10.794;2023-06-10T03:17:53;5.85;;;5.35;;
10977;SDS011;5542;48.272;10.794;2023-06-10T03:20:21;5.38;;;4.88;;
10977;SDS011;5542;48.272;10.794;2023-06-10T03:22:48;6.65;;;5.95;;
10977;SDS011;5542;48.272;10.794;2023-06-10T03:25:15;5.82;;;5.32;;
10977;SDS011;5542;48.272;10.794;2023-06-10T03:27:41;5.30;;;4.80;;
10977;SDS011;5542;48.272;10.794;2023-06-10T03:30:09;6.53;;;5.93;;
10977;SDS011;5542;48.272;10.794;2023-06-10T03:32:36;5.90;;;5.40;;
10977;SDS011;5542;48.272;10.794;2023-06-10T03:35:03;6.20;;;5.67;;
10977;SDS011;5542;48.272;10.794;2023-06-10T03:37:33;6.70;;;6.10;;
10977;SDS011;5542;48.272;10.794;2023-06-10T03:39:59;6.78;;;6.07;;
10977;SDS011;5542;48.272;10.794;2023-06-10T03:42:28;6.95;;;6.35;;
10977;SDS011;5542;48.272;10.794;2023-06-10T03:44:55;6.85;;;6.03;;
10977;SDS011;5542;48.272;10.794;2023-06-10T03:47:21;5.90;;;5.40;;
10977;SDS011;5542;48.272;10.794;2023-06-10T03:49:48;5.78;;;5.28;;
10977;SDS011;5542;48.272;10.794;2023-06-10T03:52:14;6.60;;;6.00;;
10977;SDS011;5542;48.272;10.794;2023-06-10T03:54:42;7.10;;;6.50;;
10977;SDS011;5542;48.272;10.794;2023-06-10T03:57:09;6.95;;;6.35;;
10977;SDS011;5542;48.272;10.794;2023-06-10T03:59:36;7.43;;;6.10;;
10977;SDS011;5542;48.272;10.794;2023-06-10T04:02:02;6.90;;;6.20;;
10977;SDS011;5542;48.272;10.794;2023-06-10T04:04:30;7.05;;;6.40;;
10977;SDS011;5542;48.272;10.794;2023-06-10T04:06:56;6.88;;;6.28;;
10977;SDS011;5542;48.272;10.794;2023-06-10T04:09:23;5.80;;;5.30;;
10977;SDS011;5542;48.272;10.794;2023-06-10T04:11:51;6.47;;;5.88;;
10977;SDS011;5542;48.272;10.794;2023-06-10T04:14:17;6.07;;;5.53;;
10977;SDS011;5542;48.272;10.794;2023-06-10T04:16:44;7.63;;;6.90;;
10977;SDS011;5542;48.272;10.794;2023-06-10T04:19:10;6.60;;;6.00;;
10977;SDS011;5542;48.272;10.794;2023-06-10T04:21:37;7.60;;;6.90;;
10977;SDS011;5542;48.272;10.794;2023-06-10T04:24:04;7.25;;;6.55;;
10977;SDS011;5542;48.272;10.794;2023-06-10T04:26:31;6.03;;;5.50;;
10977;SDS011;5542;48.272;10.794;2023-06-10T04:28:58;6.50;;;6.00;;
10977;SDS011;5542;48.272;10.794;2023-06-10T04:31:25;7.05;;;6.35;;
10977;SDS011;5542;48.272;10.794;2023-06-10T04:33:52;7.00;;;6.30;;
10977;SDS011;5542;48.272;10.794;2023-06-10T04:36:19;6.85;;;6.25;;
10977;SDS011;5542;48.272;10.794;2023-06-10T04:38:46;6.13;;;5.55;;
10977;SDS011;5542;48.272;10.794;2023-06-10T04:41:12;6.75;;;6.15;;
10977;SDS011;5542;48.272;10.794;2023-06-10T04:43:39;7.47;;;6.78;;
10977;SDS011;5542;48.272;10.794;2023-06-10T04:46:07;6.70;;;6.10;;
10977;SDS011;5542;48.272;10.794;2023-06-10T04:48:33;6.60;;;6.00;;
10977;SDS011;5542;48.272;10.794;2023-06-10T04:51:01;6.80;;;6.20;;
10977;SDS011;5542;48.272;10.794;2023-06-10T04:53:27;6.43;;;5.85;;
10977;SDS011;5542;48.272;10.794;2023-06-10T04:55:54;6.93;;;6.32;;
10977;SDS011;5542;48.272;10.794;2023-06-10T04:58:22;6.65;;;5.90;;
10977;SDS011;5542;48.272;10.794;2023-06-10T05:00:49;6.50;;;5.90;;
10977;SDS011;5542;48.272;10.794;2023-06-10T05:03:17;6.22;;;5.63;;
10977;SDS011;5542;48.272;10.794;2023-06-10T05:05:43;6.40;;;5.80;;
10977;SDS011;5542;48.272;10.794;2023-06-10T05:08:10;6.53;;;5.93;;
10977;SDS011;5542;48.272;10.794;2023-06-10T05:10:36;6.83;;;6.23;;
10977;SDS011;5542;48.272;10.794;2023-06-10T05:13:03;6.20;;;5.70;;
10977;SDS011;5542;48.272;10.794;2023-06-10T05:15:30;5.72;;;5.22;;
10977;SDS011;5542;48.272;10.794;2023-06-10T05:17:57;5.65;;;5.15;;
10977;SDS011;5542;48.272;10.794;2023-06-10T05:20:25;6.70;;;6.07;;
10977;SDS011;5542;48.272;10.794;2023-06-10T05:22:53;6.30;;;5.78;;
10977;SDS011;5542;48.272;10.794;2023-06-10T05:25:20;6.38;;;5.75;;
10977;SDS011;5542;48.272;10.794;2023-06-10T05:27:46;7.22;;;6.53;;
10977;SDS011;5542;48.272;10.794;2023-06-10T05:30:13;6.53;;;5.93;;
10977;SDS011;5542;48.272;10.794;2023-06-10T05:32:40;6.85;;;6.20;;
10977;SDS011;5542;48.272;10.794;2023-06-10T05:35:06;7.25;;;6.55;;
10977;SDS011;5542;48.272;10.794;2023-06-10T05:37:34;6.55;;;5.93;;
10977;SDS011;5542;48.272;10.794;2023-06-10T05:40:02;6.68;;;6.10;;
10977;SDS011;5542;48.272;10.794;2023-06-10T05:42:29;6.50;;;5.90;;
10977;SDS011;5542;48.272;10.794;2023-06-10T05:44:56;6.53;;;5.93;;
10977;SDS011;5542;48.272;10.794;2023-06-10T05:47:22;7.32;;;6.63;;
10977;SDS011;5542;48.272;10.794;2023-06-10T05:49:49;7.03;;;6.32;;
10977;SDS011;5542;48.272;10.794;2023-06-10T05:52:16;6.50;;;5.90;;
10977;SDS011;5542;48.272;10.794;2023-06-10T05:54:45;6.85;;;6.15;;
10977;SDS011;5542;48.272;10.794;2023-06-10T05:57:12;6.50;;;6.00;;
10977;SDS011;5542;48.272;10.794;2023-06-10T05:59:38;7.55;;;6.57;;
10977;SDS011;5542;48.272;10.794;2023-06-10T06:02:05;6.75;;;6.15;;
10977;SDS011;5542;48.272;10.794;2023-06-10T06:04:32;6.88;;;6.28;;
10977;SDS011;5542;48.272;10.794;2023-06-10T06:06:58;7.25;;;6.55;;
10977;SDS011;5542;48.272;10.794;2023-06-10T06:09:25;6.93;;;6.32;;
10977;SDS011;5542;48.272;10.794;2023-06-10T06:11:53;6.97;;;6.38;;
10977;SDS011;5542;48.272;10.794;2023-06-10T06:14:19;7.55;;;6.85;;
10977;SDS011;5542;48.272;10.794;2023-06-10T06:16:46;7.25;;;6.55;;
10977;SDS011;5542;48.272;10.794;2023-06-10T06:19:12;6.72;;;6.13;;
10977;SDS011;5542;48.272;10.794;2023-06-10T06:21:39;6.88;;;6.28;;
10977;SDS011;5542;48.272;10.794;2023-06-10T06:24:06;7.40;;;6.70;;
10977;SDS011;5542;48.272;10.794;2023-06-10T06:26:33;6.50;;;5.95;;
10977;SDS011;5542;48.272;10.794;2023-06-10T06:29:01;6.63;;;6.03;;
10977;SDS011;5542;48.272;10.794;2023-06-10T06:31:27;7.05;;;6.38;;
10977;SDS011;5542;48.272;10.794;2023-06-10T06:33:54;6.30;;;5.70;;
10977;SDS011;5542;48.272;10.794;2023-06-10T06:36:21;6.38;;;5.78;;
10977;SDS011;5542;48.272;10.794;2023-06-10T06:38:47;6.47;;;5.88;;
10977;SDS011;5542;48.272;10.794;2023-06-10T06:41:14;6.90;;;6.30;;
10977;SDS011;5542;48.272;10.794;2023-06-10T06:43:40;7.03;;;6.40;;
10977;SDS011;5542;48.272;10.794;2023-06-10T06:46:09;5.75;;;5.25;;
10977;SDS011;5542;48.272;10.794;2023-06-10T06:48:35;6.72;;;6.03;;
10977;SDS011;5542;48.272;10.794;2023-06-10T06:51:02;6.35;;;5.75;;
10977;SDS011;5542;48.272;10.794;2023-06-10T06:53:29;6.35;;;5.75;;
10977;SDS011;5542;48.272;10.794;2023-06-10T06:55:55;6.40;;;5.90;;
10977;SDS011;5542;48.272;10.794;2023-06-10T06:58:22;5.93;;;5.43;;
10977;SDS011;5542;48.272;10.794;2023-06-10T07:00:48;6.47;;;5.88;;
10977;SDS011;5542;48.272;10.794;2023-06-10T07:03:16;5.90;;;5.40;;
10977;SDS011;5542;48.272;10.794;2023-06-10T07:05:43;6.40;;;5.90;;
10977;SDS011;5542;48.272;10.794;2023-06-10T07:08:09;5.45;;;5.05;;
10977;SDS011;5542;48.272;10.794;2023-06-10T07:10:37;5.88;;;5.38;;
10977;SDS011;5542;48.272;10.794;2023-06-10T07:13:04;5.50;;;5.10;;
10977;SDS011;5542;48.272;10.794;2023-06-10T07:15:30;6.10;;;5.60;;
10977;SDS011;5542;48.272;10.794;2023-06-10T07:17:57;6.30;;;5.70;;
10977;SDS011;5542;48.272;10.794;2023-06-10T07:20:25;6.32;;;5.78;;
10977;SDS011;5542;48.272;10.794;2023-06-10T07:22:52;6.05;;;5.50;;
10977;SDS011;5542;48.272;10.794;2023-06-10T07:25:18;5.85;;;5.35;;
10977;SDS011;5542;48.272;10.794;2023-06-10T07:27:45;5.75;;;5.10;;
10977;SDS011;5542;48.272;10.794;2023-06-10T07:30:12;5.68;;;5.18;;
10977;SDS011;5542;48.272;10.794;2023-06-10T07:32:39;6.05;;;5.55;;
10977;SDS011;5542;48.272;10.794;2023-06-10T07:35:08;6.20;;;5.40;;
10977;SDS011;5542;48.272;10.794;2023-06-10T07:37:37;5.77;;;5.27;;
10977;SDS011;5542;48.272;10.794;2023-06-10T07:40:04;5.63;;;5.13;;
10977;SDS011;5542;48.272;10.794;2023-06-10T07:42:31;5.50;;;5.00;;
10977;SDS011;5542;48.272;10.794;2023-06-10T07:44:58;6.10;;;5.60;;
10977;SDS011;5542;48.272;10.794;2023-06-10T07:47:24;6.00;;;5.43;;
10977;SDS011;5542;48.272;10.794;2023-06-10T07:49:51;6.38;;;5.78;;
10977;SDS011;5542;48.272;10.794;2023-06-10T07:52:18;5.65;;;5.15;;
10977;SDS011;5542;48.272;10.794;2023-06-10T07:54:46;6.25;;;4.93;;
10977;SDS011;5542;48.272;10.794;2023-06-10T07:57:12;5.50;;;5.10;;
10977;SDS011;5542;48.272;10.794;2023-06-10T07:59:39;5.10;;;4.70;;
10977;SDS011;5542;48.272;10.794;2023-06-10T08:02:05;5.23;;;4.80;;
10977;SDS011;5542;48.272;10.794;2023-06-10T08:04:32;5.38;;;4.90;;
10977;SDS011;5542;48.272;10.794;2023-06-10T08:07:00;5.30;;;4.80;;
10977;SDS011;5542;48.272;10.794;2023-06-10T08:09:28;4.95;;;4.55;;
10977;SDS011;5542;48.272;10.794;2023-06-10T08:11:56;4.80;;;4.40;;
10977;SDS011;5542;48.272;10.794;2023-06-10T08:14:23;5.00;;;4.53;;
10977;SDS011;5542;48.272;10.794;2023-06-10T08:16:49;4.50;;;4.10;;
10977;SDS011;5542;48.272;10.794;2023-06-10T08:19:16;4.90;;;4.50;;
10977;SDS011;5542;48.272;10.794;2023-06-10T08:21:42;4.32;;;4.03;;
10977;SDS011;5542;48.272;10.794;2023-06-10T08:24:09;5.10;;;4.57;;
10977;SDS011;5542;48.272;10.794;2023-06-10T08:26:36;4.60;;;4.20;;
10977;SDS011;5542;48.272;10.794;2023-06-10T08:29:03;4.73;;;4.33;;
10977;SDS011;5542;48.272;10.794;2023-06-10T08:31:30;3.97;;;3.67;;
10977;SDS011;5542;48.272;10.794;2023-06-10T08:33:57;4.83;;;4.47;;
10977;SDS011;5542;48.272;10.794;2023-06-10T08:36:23;7.05;;;4.65;;
10977;SDS011;5542;48.272;10.794;2023-06-10T08:38:50;4.90;;;4.50;;
10977;SDS011;5542;48.272;10.794;2023-06-10T08:41:17;4.82;;;4.43;;
10977;SDS011;5542;48.272;10.794;2023-06-10T08:43:46;4.53;;;4.13;;
10977;SDS011;5542;48.272;10.794;2023-06-10T08:46:20;4.80;;;4.30;;
10977;SDS011;5542;48.272;10.794;2023-06-10T08:48:47;5.03;;;4.63;;
10977;SDS011;5542;48.272;10.794;2023-06-10T08:51:19;4.95;;;4.55;;
10977;SDS011;5542;48.272;10.794;2023-06-10T08:53:48;4.60;;;4.28;;
10977;SDS011;5542;48.272;10.794;2023-06-10T08:56:19;4.43;;;4.13;;
10977;SDS011;5542;48.272;10.794;2023-06-10T08:58:47;4.68;;;4.28;;
10977;SDS011;5542;48.272;10.794;2023-06-10T09:01:14;5.13;;;4.50;;
10977;SDS011;5542;48.272;10.794;2023-06-10T09:03:43;4.97;;;4.45;;
10977;SDS011;5542;48.272;10.794;2023-06-10T09:06:09;6.43;;;5.68;;
10977;SDS011;5542;48.272;10.794;2023-06-10T09:08:36;4.10;;;3.80;;
10977;SDS011;5542;48.272;10.794;2023-06-10T09:11:03;4.10;;;3.80;;
10977;SDS011;5542;48.272;10.794;2023-06-10T09:13:30;3.33;;;3.13;;
10977;SDS011;5542;48.272;10.794;2023-06-10T09:15:56;3.80;;;3.50;;
10977;SDS011;5542;48.272;10.794;2023-06-10T09:18:26;4.57;;;4.00;;
10977;SDS011;5542;48.272;10.794;2023-06-10T09:20:54;3.90;;;3.60;;
10977;SDS011;5542;48.272;10.794;2023-06-10T09:23:21;3.33;;;3.13;;
10977;SDS011;5542;48.272;10.794;2023-06-10T09:25:55;4.10;;;3.70;;
10977;SDS011;5542;48.272;10.794;2023-06-10T09:28:23;6.97;;;4.40;;
10977;SDS011;5542;48.272;10.794;2023-06-10T09:31:00;3.88;;;3.40;;
10977;SDS011;5542;48.272;10.794;2023-06-10T09:33:28;3.67;;;3.47;;
10977;SDS011;5542;48.272;10.794;2023-06-10T09:35:56;3.45;;;3.20;;
10977;SDS011;5542;48.272;10.794;2023-06-10T09:38:29;3.20;;;3.00;;
10977;SDS011;5542;48.272;10.794;2023-06-10T09:40:56;3.80;;;2.93;;
10977;SDS011;5542;48.272;10.794;2023-06-10T09:43:23;3.28;;;3.08;;
10977;SDS011;5542;48.272;10.794;2023-06-10T09:45:50;3.42;;;3.08;;
10977;SDS011;5542;48.272;10.794;2023-06-10T09:48:18;3.17;;;2.97;;
10977;SDS011;5542;48.272;10.794;2023-06-10T09:50:45;3.95;;;3.22;;
10977;SDS011;5542;48.272;10.794;2023-06-10T09:53:13;3.17;;;2.97;;
10977;SDS011;5542;48.272;10.794;2023-06-10T09:55:40;3.30;;;3.10;;
10977;SDS011;5542;48.272;10.794;2023-06-10T09:58:07;3.15;;;2.95;;
10977;SDS011;5542;48.272;10.794;2023-06-10T10:00:34;3.30;;;3.10;;
10977;SDS011;5542;48.272;10.794;2023-06-10T10:03:01;3.45;;;3.25;;
10977;SDS011;5542;48.272;10.794;2023-06-10T10:05:28;4.32;;;4.03;;
10977;SDS011;5542;48.272;10.794;2023-06-10T10:07:55;3.72;;;3.42;;
10977;SDS011;5542;48.272;10.794;2023-06-10T10:10:23;3.88;;;3.33;;
10977;SDS011;5542;48.272;10.794;2023-06-10T10:12:51;3.20;;;3.00;;
10977;SDS011;5542;48.272;10.794;2023-06-10T10:15:21;3.47;;;3.17;;
10977;SDS011;5542;48.272;10.794;2023-06-10T10:17:52;3.40;;;3.10;;
10977;SDS011;5542;48.272;10.794;2023-06-10T10:20:23;3.45;;;3.15;;
10977;SDS011;5542;48.272;10.794;2023-06-10T10:22:52;3.75;;;3.50;;
10977;SDS011;5542;48.272;10.794;2023-06-10T10:25:25;3.50;;;3.30;;
10977;SDS011;5542;48.272;10.794;2023-06-10T10:27:55;3.40;;;3.20;;
10977;SDS011;5542;48.272;10.794;2023-06-10T10:30:25;3.53;;;3.22;;
10977;SDS011;5542;48.272;10.794;2023-06-10T10:32:55;3.45;;;3.15;;
10977;SDS011;5542;48.272;10.794;2023-06-10T10:35:24;3.65;;;3.35;;
10977;SDS011;5542;48.272;10.794;2023-06-10T10:37:53;3.40;;;3.20;;
10977;SDS011;5542;48.272;10.794;2023-06-10T10:40:21;3.80;;;3.50;;
10977;SDS011;5542;48.272;10.794;2023-06-10T10:42:51;3.75;;;3.45;;
10977;SDS011;5542;48.272;10.794;2023-06-10T10:45:18;3.40;;;3.20;;
10977;SDS011;5542;48.272;10.794;2023-06-10T10:47:45;4.22;;;3.92;;
10977;SDS011;5542;48.272;10.794;2023-06-10T10:50:16;3.53;;;3.33;;
10977;SDS011;5542;48.272;10.794;2023-06-10T10:52:50;3.53;;;3.33;;
10977;SDS011;5542;48.272;10.794;2023-06-10T10:55:19;3.60;;;3.30;;
10977;SDS011;5542;48.272;10.794;2023-06-10T10:57:54;3.45;;;3.17;;
10977;SDS011;5542;48.272;10.794;2023-06-10T11:00:27;3.03;;;2.83;;
10977;SDS011;5542;48.272;10.794;2023-06-10T11:02:57;3.38;;;3.17;;
10977;SDS011;5542;48.272;10.794;2023-06-10T11:08:09;3.35;;;3.15;;
10977;SDS011;5542;48.272;10.794;2023-06-10T11:10:37;3.80;;;3.50;;
10977;SDS011;5542;48.272;10.794;2023-06-10T11:13:09;3.47;;;3.25;;
10977;SDS011;5542;48.272;10.794;2023-06-10T11:15:39;3.80;;;3.50;;
10977;SDS011;5542;48.272;10.794;2023-06-10T11:18:10;3.92;;;3.63;;
10977;SDS011;5542;48.272;10.794;2023-06-10T11:20:44;3.60;;;3.40;;
10977;SDS011;5542;48.272;10.794;2023-06-10T11:23:38;3.75;;;3.47;;
10977;SDS011;5542;48.272;10.794;2023-06-10T11:26:09;4.07;;;3.78;;
10977;SDS011;5542;48.272;10.794;2023-06-10T11:31:45;4.03;;;3.72;;
10977;SDS011;5542;48.272;10.794;2023-06-10T11:34:20;4.40;;;4.00;;
10977;SDS011;5542;48.272;10.794;2023-06-10T11:36:49;3.92;;;3.63;;
10977;SDS011;5542;48.272;10.794;2023-06-10T11:39:17;4.00;;;3.70;;
10977;SDS011;5542;48.272;10.794;2023-06-10T11:41:45;4.27;;;3.97;;
10977;SDS011;5542;48.272;10.794;2023-06-10T11:44:12;4.20;;;3.88;;
10977;SDS011;5542;48.272;10.794;2023-06-10T11:46:40;4.57;;;4.20;;
10977;SDS011;5542;48.272;10.794;2023-06-10T11:49:08;4.25;;;3.85;;
10977;SDS011;5542;48.272;10.794;2023-06-10T11:51:35;3.83;;;3.60;;
10977;SDS011;5542;48.272;10.794;2023-06-10T11:54:04;3.95;;;3.65;;
10977;SDS011;5542;48.272;10.794;2023-06-10T11:56:31;3.55;;;3.30;;
10977;SDS011;5542;48.272;10.794;2023-06-10T11:58:59;3.75;;;3.55;;
10977;SDS011;5542;48.272;10.794;2023-06-10T12:01:29;4.18;;;3.83;;
10977;SDS011;5542;48.272;10.794;2023-06-10T12:03:58;3.97;;;3.67;;
10977;SDS011;5542;48.272;10.794;2023-06-10T12:06:37;3.88;;;3.58;;
10977;SDS011;5542;48.272;10.794;2023-06-10T12:09:04;4.25;;;3.85;;
10977;SDS011;5542;48.272;10.794;2023-06-10T12:11:31;4.05;;;3.75;;
10977;SDS011;5542;48.272;10.794;2023-06-10T12:13:58;3.83;;;3.53;;
10977;SDS011;5542;48.272;10.794;2023-06-10T12:16:24;4.18;;;3.88;;
10977;SDS011;5542;48.272;10.794;2023-06-10T12:18:51;3.67;;;3.42;;
10977;SDS011;5542;48.272;10.794;2023-06-10T12:21:29;4.75;;;4.07;;
10977;SDS011;5542;48.272;10.794;2023-06-10T12:24:00;4.30;;;4.00;;
10977;SDS011;5542;48.272;10.794;2023-06-10T12:26:37;4.20;;;3.80;;
10977;SDS011;5542;48.272;10.794;2023-06-10T12:29:20;4.28;;;3.88;;
10977;SDS011;5542;48.272;10.794;2023-06-10T12:31:53;4.97;;;4.57;;
10977;SDS011;5542;48.272;10.794;2023-06-10T12:34:29;4.35;;;3.95;;
10977;SDS011;5542;48.272;10.794;2023-06-10T12:37:01;4.85;;;4.45;;
10977;SDS011;5542;48.272;10.794;2023-06-10T12:39:29;4.65;;;4.28;;
10977;SDS011;5542;48.272;10.794;2023-06-10T12:41:56;4.15;;;3.85;;
10977;SDS011;5542;48.272;10.794;2023-06-10T12:44:30;4.63;;;4.23;;
10977;SDS011;5542;48.272;10.794;2023-06-10T12:46:57;4.45;;;4.05;;
10977;SDS011;5542;48.272;10.794;2023-06-10T12:49:24;4.25;;;3.95;;
10977;SDS011;5542;48.272;10.794;2023-06-10T12:51:52;4.75;;;4.35;;
10977;SDS011;5542;48.272;10.794;2023-06-10T12:54:19;4.50;;;4.10;;
10977;SDS011;5542;48.272;10.794;2023-06-10T12:56:46;5.33;;;4.83;;
10977;SDS011;5542;48.272;10.794;2023-06-10T12:59:12;4.57;;;4.20;;
10977;SDS011;5542;48.272;10.794;2023-06-10T13:01:39;5.00;;;4.60;;
10977;SDS011;5542;48.272;10.794;2023-06-10T13:04:06;4.80;;;4.40;;
10977;SDS011;5542;48.272;10.794;2023-06-10T13:06:33;4.30;;;4.00;;
10977;SDS011;5542;48.272;10.794;2023-06-10T13:09:03;5.18;;;4.30;;
10977;SDS011;5542;48.272;10.794;2023-06-10T13:11:31;5.03;;;4.60;;
10977;SDS011;5542;48.272;10.794;2023-06-10T13:13:58;4.90;;;4.50;;
10977;SDS011;5542;48.272;10.794;2023-06-10T13:16:25;5.13;;;4.65;;
10977;SDS011;5542;48.272;10.794;2023-06-10T13:18:52;4.97;;;4.57;;
10977;SDS011;5542;48.272;10.794;2023-06-10T13:21:19;4.72;;;4.32;;
10977;SDS011;5542;48.272;10.794;2023-06-10T13:23:46;4.95;;;4.50;;
10977;SDS011;5542;48.272;10.794;2023-06-10T13:26:14;4.97;;;4.47;;
10977;SDS011;5542;48.272;10.794;2023-06-10T13:28:42;4.80;;;4.40;;
10977;SDS011;5542;48.272;10.794;2023-06-10T13:31:08;4.60;;;4.20;;
10977;SDS011;5542;48.272;10.794;2023-06-10T13:33:35;4.93;;;4.53;;
10977;SDS011;5542;48.272;10.794;2023-06-10T13:36:02;4.40;;;4.00;;
10977;SDS011;5542;48.272;10.794;2023-06-10T13:38:29;4.50;;;4.20;;
10977;SDS011;5542;48.272;10.794;2023-06-10T13:40:56;4.70;;;4.40;;
10977;SDS011;5542;48.272;10.794;2023-06-10T13:43:24;4.33;;;3.93;;
10977;SDS011;5542;48.272;10.794;2023-06-10T13:45:50;4.72;;;4.32;;
10977;SDS011;5542;48.272;10.794;2023-06-10T13:48:17;4.13;;;3.83;;
10977;SDS011;5542;48.272;10.794;2023-06-10T13:50:45;4.20;;;3.80;;
10977;SDS011;5542;48.272;10.794;2023-06-10T13:53:11;4.47;;;4.10;;
10977;SDS011;5542;48.272;10.794;2023-06-10T13:55:38;4.47;;;4.07;;
10977;SDS011;5542;48.272;10.794;2023-06-10T13:58:05;3.65;;;3.45;;
10977;SDS011;5542;48.272;10.794;2023-06-10T14:00:33;4.50;;;4.20;;
10977;SDS011;5542;48.272;10.794;2023-06-10T14:03:00;4.22;;;3.92;;
10977;SDS011;5542;48.272;10.794;2023-06-10T14:05:28;4.13;;;3.83;;
10977;SDS011;5542;48.272;10.794;2023-06-10T14:07:54;3.72;;;3.53;;
10977;SDS011;5542;48.272;10.794;2023-06-10T14:10:21;4.10;;;3.80;;
10977;SDS011;5542;48.272;10.794;2023-06-10T14:12:47;4.05;;;3.75;;
10977;SDS011;5542;48.272;10.794;2023-06-10T14:15:14;3.92;;;3.63;;
10977;SDS011;5542;48.272;10.794;2023-06-10T14:17:43;3.95;;;3.65;;
10977;SDS011;5542;48.272;10.794;2023-06-10T14:20:09;3.85;;;3.55;;
10977;SDS011;5542;48.272;10.794;2023-06-10T14:22:37;3.35;;;3.15;;
10977;SDS011;5542;48.272;10.794;2023-06-10T14:25:04;3.70;;;3.40;;
10977;SDS011;5542;48.272;10.794;2023-06-10T14:27:31;3.75;;;3.22;;
10977;SDS011;5542;48.272;10.794;2023-06-10T14:29:58;3.63;;;3.33;;
10977;SDS011;5542;48.272;10.794;2023-06-10T14:32:24;3.50;;;3.20;;
10977;SDS011;5542;48.272;10.794;2023-06-10T14:34:52;3.40;;;3.20;;
10977;SDS011;5542;48.272;10.794;2023-06-10T14:37:19;3.50;;;3.30;;
10977;SDS011;5542;48.272;10.794;2023-06-10T14:39:45;3.20;;;2.90;;
10977;SDS011;5542;48.272;10.794;2023-06-10T14:42:12;3.53;;;3.23;;
10977;SDS011;5542;48.272;10.794;2023-06-10T14:44:38;3.50;;;3.20;;
10977;SDS011;5542;48.272;10.794;2023-06-10T14:47:05;3.35;;;3.15;;
10977;SDS011;5542;48.272;10.794;2023-06-10T14:49:32;3.58;;;3.33;;
10977;SDS011;5542;48.272;10.794;2023-06-10T14:51:59;3.60;;;3.30;;
10977;SDS011;5542;48.272;10.794;2023-06-10T14:54:26;3.40;;;3.20;;
10977;SDS011;5542;48.272;10.794;2023-06-10T14:56:53;3.28;;;3.08;;